M I D A S
Marine Information and Data Acquisition System
Tripno 2122 of the Zeeleeuw from 2011-06-17 07:37:05 to 2011-06-17 14:36:01
Back to CruiseResearch ActivitiesStationsMapUnderway DataData graphs

EquipmentUnitsComment
TimeDGPSUTC
LatitudeDGPSDM.mWGS84
LongitudeDGPSDM.mWGS84
HeadingGyrodeg 
SOGDGPSknotsSpeed over ground
COGDGPSdegCourse over ground
DepthEcho soundermeters200 kHz
Missing or incorrect values are displayed as -999
Navigation data collected by the RV Zeeleeuw from 2011-06-17 07:27:08 to 2011-06-17 15:16:07
                                                                                    Next 1000 lines
Time Latitude Longitude Heading SOG COG Depth
2011-06-17 07:27:18 51°13.637 2°56.01 112.6 1.6 293 6.2
2011-06-17 07:27:23 51°13.639 2°56.006 112.9 2.2 297 6.3
2011-06-17 07:27:28 51°13.641 2°56 113.2 2.7 296 -999
2011-06-17 07:27:34 51°13.643 2°55.992 113.2 3.2 296 -999
2011-06-17 07:27:38 51°13.645 2°55.987 113.2 3.5 297 -999
2011-06-17 07:27:43 51°13.647 2°55.979 113.2 3.7 295 -999
2011-06-17 07:27:48 51°13.649 2°55.972 112.7 3.8 296 -999
2011-06-17 07:27:54 51°13.652 2°55.963 112.2 3.8 294 -999
2011-06-17 07:27:58 51°13.653 2°55.957 111.4 3.7 293 -999
2011-06-17 07:28:03 51°13.655 2°55.949 110.4 3.8 293 -999
2011-06-17 07:28:08 51°13.657 2°55.941 109.4 3.6 291 -999
2011-06-17 07:28:14 51°13.659 2°55.933 108.3 3.4 289 -999
2011-06-17 07:28:18 51°13.66 2°55.929 107 2.7 292 -999
2011-06-17 07:28:23 51°13.661 2°55.925 106.3 1.5 292 -999
2011-06-17 07:28:28 51°13.662 2°55.923 106.1 1.3 299 -999
2011-06-17 07:28:33 51°13.662 2°55.92 107.4 1.4 286 -999
2011-06-17 07:28:38 51°13.663 2°55.917 107.7 1.7 297 8.6
2011-06-17 07:28:43 51°13.664 2°55.913 107.6 1.8 285 8.8
2011-06-17 07:28:48 51°13.665 2°55.909 107.5 1.9 291 8.8
2011-06-17 07:28:52 51°13.666 2°55.905 106.8 2.1 285 8.7
2011-06-17 07:28:58 51°13.667 2°55.899 106 2.4 287 8.6
2011-06-17 07:29:02 51°13.668 2°55.895 105.7 2.6 286 -999
2011-06-17 07:29:08 51°13.669 2°55.888 106.1 2.8 287 -999
2011-06-17 07:29:13 51°13.67 2°55.882 107.5 2.9 288 -999
2011-06-17 07:29:18 51°13.671 2°55.875 109.1 3 287 -999
2011-06-17 07:29:23 51°13.673 2°55.869 110.6 3.1 292 -999
2011-06-17 07:29:28 51°13.674 2°55.863 112.3 3.3 292 -999
2011-06-17 07:29:33 51°13.676 2°55.856 114.2 3.4 295 -999
2011-06-17 07:29:38 51°13.679 2°55.849 116.2 3.5 295 -999
2011-06-17 07:29:43 51°13.681 2°55.842 117.9 3.6 298 -999
2011-06-17 07:29:48 51°13.683 2°55.835 119.8 3.8 300 -999
2011-06-17 07:29:53 51°13.686 2°55.827 121.7 3.8 302 -999
2011-06-17 07:29:58 51°13.689 2°55.82 123.9 3.8 304 -999
2011-06-17 07:30:03 51°13.692 2°55.814 125.8 3.8 306 -999
2011-06-17 07:30:09 51°13.696 2°55.806 127.4 3.8 307 -999
2011-06-17 07:30:14 51°13.7 2°55.799 129 3.9 309 -999
2011-06-17 07:30:18 51°13.702 2°55.794 129.8 3.9 309 -999
2011-06-17 07:30:23 51°13.706 2°55.787 130.7 3.9 311 -999
2011-06-17 07:30:28 51°13.71 2°55.781 131.5 3.9 311 -999
2011-06-17 07:30:34 51°13.714 2°55.773 132.3 3.9 312 -999
2011-06-17 07:30:39 51°13.718 2°55.767 133.1 3.9 313 -999
2011-06-17 07:30:43 51°13.721 2°55.762 133.9 3.9 314 -999
2011-06-17 07:30:48 51°13.725 2°55.755 134.6 3.9 314 -999
2011-06-17 07:30:53 51°13.729 2°55.749 135.6 4 316 -999
2011-06-17 07:30:58 51°13.733 2°55.743 136.8 4 317 -999
2011-06-17 07:31:03 51°13.737 2°55.737 137.9 4.1 318 -999
2011-06-17 07:31:07 51°13.74 2°55.732 138.7 4.2 319 -999
2011-06-17 07:31:13 51°13.745 2°55.725 139.6 4.4 320 -999
2011-06-17 07:31:19 51°13.751 2°55.718 140.7 4.6 321 -999
2011-06-17 07:31:24 51°13.757 2°55.712 141.6 4.8 322 -999
2011-06-17 07:31:28 51°13.762 2°55.706 142 5 322 -999
2011-06-17 07:31:33 51°13.767 2°55.699 142.3 5.1 323 -999
2011-06-17 07:31:38 51°13.773 2°55.692 142.3 5 322 -999
2011-06-17 07:31:43 51°13.778 2°55.685 142.7 4.9 323 -999
2011-06-17 07:31:48 51°13.784 2°55.68 143.1 4.8 323 -999
2011-06-17 07:31:53 51°13.789 2°55.673 143.5 4.7 324 -999
2011-06-17 07:31:58 51°13.794 2°55.667 144.3 4.6 325 -999
2011-06-17 07:32:03 51°13.799 2°55.661 145.5 4.6 326 -999
2011-06-17 07:32:08 51°13.804 2°55.656 146.7 4.5 327 -999
2011-06-17 07:32:13 51°13.809 2°55.651 148 4.4 328 -999
2011-06-17 07:32:18 51°13.814 2°55.645 149.4 4.4 329 -999
2011-06-17 07:32:23 51°13.82 2°55.64 151 4.4 330 -999
2011-06-17 07:32:28 51°13.825 2°55.636 152.7 4.4 333 -999
2011-06-17 07:32:33 51°13.83 2°55.632 154.7 4.3 333 -999
2011-06-17 07:32:38 51°13.836 2°55.628 156.6 4.3 336 -999
2011-06-17 07:32:43 51°13.841 2°55.624 158.6 4.3 337 -999
2011-06-17 07:32:48 51°13.847 2°55.621 160.5 4.3 339 -999
2011-06-17 07:32:53 51°13.852 2°55.618 162.4 4.2 341 -999
2011-06-17 07:32:58 51°13.858 2°55.615 164.5 4.2 343 -999
2011-06-17 07:33:03 51°13.864 2°55.612 166.6 4.1 345 -999
2011-06-17 07:33:08 51°13.869 2°55.61 168.8 4 347 -999
2011-06-17 07:33:13 51°13.875 2°55.608 170.8 4 348 -999
2011-06-17 07:33:19 51°13.881 2°55.607 172.8 3.9 350 -999
2011-06-17 07:33:24 51°13.886 2°55.605 174.9 3.9 352 -999
2011-06-17 07:33:28 51°13.89 2°55.605 177 3.8 354 -999
2011-06-17 07:33:33 51°13.896 2°55.604 179.3 3.8 355 -999
2011-06-17 07:33:38 51°13.901 2°55.604 181.5 3.7 357 -999
2011-06-17 07:33:43 51°13.906 2°55.604 183.9 3.7 1 -999
2011-06-17 07:33:48 51°13.911 2°55.604 186.6 3.6 3 -999
2011-06-17 07:33:53 51°13.916 2°55.605 189.5 3.6 6 -999
2011-06-17 07:33:58 51°13.921 2°55.606 192.5 3.6 10 -999
2011-06-17 07:34:03 51°13.926 2°55.607 195.7 3.6 12 -999
2011-06-17 07:34:08 51°13.931 2°55.609 199 3.4 16 -999
2011-06-17 07:34:13 51°13.935 2°55.612 202.1 3.3 17 -999
2011-06-17 07:34:18 51°13.939 2°55.614 204.9 3.1 20 -999
2011-06-17 07:34:23 51°13.943 2°55.617 207.4 3 21 -999
2011-06-17 07:34:28 51°13.947 2°55.619 209.7 2.8 23 -999
2011-06-17 07:34:33 51°13.95 2°55.621 212 2.6 25 -999
2011-06-17 07:34:38 51°13.953 2°55.623 214.2 2 25 9.4
2011-06-17 07:34:43 51°13.954 2°55.624 216.5 1.4 22 9.4
2011-06-17 07:34:48 51°13.955 2°55.625 219.3 0.8 12 9.4
2011-06-17 07:34:53 51°13.956 2°55.624 222.8 0.5 330 9.4
2011-06-17 07:34:57 51°13.956 2°55.623 228 0.7 283 9.4
2011-06-17 07:35:02 51°13.956 2°55.62 234.1 1.5 264 9.4
2011-06-17 07:35:07 51°13.956 2°55.615 241.1 2.1 264 9.4
2011-06-17 07:35:12 51°13.956 2°55.609 250.3 2.8 272 9.5
2011-06-17 07:35:17 51°13.956 2°55.602 259.8 3 276 9.4
2011-06-17 07:35:21 51°13.957 2°55.596 270.3 3.4 286 9.4
2011-06-17 07:35:26 51°13.959 2°55.589 277.1 3.6 290 9.3
2011-06-17 07:35:31 51°13.962 2°55.581 285.3 4 299 9.3
2011-06-17 07:35:36 51°13.965 2°55.573 292.9 4.5 304 9.4
2011-06-17 07:35:41 51°13.97 2°55.565 302.5 4.9 311 9.4
2011-06-17 07:35:45 51°13.974 2°55.559 309.7 5.5 319 9.4
2011-06-17 07:35:50 51°13.98 2°55.551 317.6 5.8 322 9.5
2011-06-17 07:35:56 51°13.989 2°55.542 324 6.1 327 -999
2011-06-17 07:36:02 51°13.998 2°55.533 327.4 6.3 327 -999
2011-06-17 07:36:07 51°14.005 2°55.526 328.6 6.5 329 -999
2011-06-17 07:36:13 51°14.015 2°55.517 329.5 6.7 330 9.5
2011-06-17 07:36:17 51°14.022 2°55.511 330.5 6.8 332 9
2011-06-17 07:36:22 51°14.03 2°55.504 332.5 7 332 9
2011-06-17 07:36:27 51°14.039 2°55.497 333.4 7.1 333 9.5
2011-06-17 07:36:32 51°14.048 2°55.49 333.7 7.2 333 9.9
2011-06-17 07:36:37 51°14.057 2°55.483 334.2 7.3 335 -999
2011-06-17 07:36:44 51°14.07 2°55.473 335.2 7.6 334 -999
2011-06-17 07:36:49 51°14.081 2°55.465 335.5 7.9 335 -999
2011-06-17 07:36:54 51°14.091 2°55.458 335.9 8.2 334 -999
2011-06-17 07:36:58 51°14.1 2°55.452 336.6 8.4 336 10.1
2011-06-17 07:37:03 51°14.111 2°55.444 336.9 8.6 335 9.9
2011-06-17 07:37:08 51°14.122 2°55.436 336.9 8.7 336 -999
2011-06-17 07:37:14 51°14.135 2°55.425 336.1 8.9 334 -999
2011-06-17 07:37:18 51°14.144 2°55.418 335.6 9.1 335 -999
2011-06-17 07:37:23 51°14.156 2°55.409 335.4 9.2 334 -999
2011-06-17 07:37:28 51°14.167 2°55.4 334.7 9.4 333 -999
2011-06-17 07:37:34 51°14.181 2°55.388 334 9.5 333 -999
2011-06-17 07:37:38 51°14.191 2°55.381 334.2 9.6 334 -999
2011-06-17 07:37:43 51°14.203 2°55.372 335.2 9.7 335 -999
2011-06-17 07:37:48 51°14.215 2°55.362 335.9 9.8 335 9.8
2011-06-17 07:37:53 51°14.228 2°55.353 336.6 9.9 335 9.5
2011-06-17 07:37:58 51°14.24 2°55.343 336.1 10 333 9.2
2011-06-17 07:38:03 51°14.253 2°55.334 335.4 10 335 9.3
2011-06-17 07:38:08 51°14.265 2°55.324 335.1 10 333 8.9
2011-06-17 07:38:13 51°14.278 2°55.314 335.2 10.1 335 9.2
2011-06-17 07:38:18 51°14.29 2°55.303 335 10.1 331 9.3
2011-06-17 07:38:23 51°14.303 2°55.293 333.4 10.3 331 9.1
2011-06-17 07:38:28 51°14.315 2°55.28 331.8 10.5 329 9
2011-06-17 07:38:33 51°14.328 2°55.268 330.5 10.7 329 -999
2011-06-17 07:38:38 51°14.34 2°55.255 329.5 10.7 327 9.3
2011-06-17 07:38:42 51°14.351 2°55.245 329 10.9 327 9.6
2011-06-17 07:38:48 51°14.366 2°55.229 327.7 11 325 8.9
2011-06-17 07:38:53 51°14.378 2°55.214 326.1 11.2 325 9.2
2011-06-17 07:38:59 51°14.394 2°55.197 325.9 11.4 325 -999
2011-06-17 07:39:03 51°14.404 2°55.185 325.5 11.5 325 -999
2011-06-17 07:39:09 51°14.42 2°55.168 325.7 11.5 325 -999
2011-06-17 07:39:13 51°14.431 2°55.156 325.7 11.6 325 -999
2011-06-17 07:39:18 51°14.444 2°55.142 326.6 11.7 327 9.2
2011-06-17 07:39:23 51°14.458 2°55.127 327.2 11.7 327 8.7
2011-06-17 07:39:28 51°14.472 2°55.114 327.6 11.8 329 9
2011-06-17 07:39:33 51°14.486 2°55.101 328.9 12.1 330 9.3
2011-06-17 07:39:38 51°14.501 2°55.087 330.4 12.2 330 9.2
2011-06-17 07:39:43 51°14.516 2°55.074 331.2 12.4 331 9.4
2011-06-17 07:39:47 51°14.528 2°55.062 331.6 12.5 328 9.9
2011-06-17 07:39:52 51°14.543 2°55.048 330.5 12.6 329 10
2011-06-17 07:39:57 51°14.558 2°55.032 330.2 12.8 326 10.3
2011-06-17 07:40:02 51°14.572 2°55.016 330.1 12.9 324 10.4
2011-06-17 07:40:07 51°14.587 2°54.998 329.9 13 324 10.3
2011-06-17 07:40:11 51°14.599 2°54.986 330.2 12.9 329 10.3
2011-06-17 07:40:16 51°14.615 2°54.972 333.2 12.9 329 10.2
2011-06-17 07:40:22 51°14.634 2°54.956 336.3 12.8 334 10.6
2011-06-17 07:40:27 51°14.649 2°54.944 339.4 12.8 333 10.3
2011-06-17 07:40:31 51°14.662 2°54.933 340.1 12.8 334 10.1
2011-06-17 07:40:36 51°14.678 2°54.922 340.7 12.8 336 9.9
2011-06-17 07:40:41 51°14.695 2°54.911 342.6 12.7 338 9.8
2011-06-17 07:40:46 51°14.711 2°54.9 343.9 12.7 337 9.6
2011-06-17 07:40:51 51°14.727 2°54.891 344.6 12.6 339 8.9
2011-06-17 07:40:55 51°14.74 2°54.883 345.7 12.5 339 8.8
2011-06-17 07:41:00 51°14.757 2°54.873 346.3 12.5 340 8.6
2011-06-17 07:41:05 51°14.773 2°54.864 347 12.4 341 8.6
2011-06-17 07:41:10 51°14.789 2°54.856 348.3 12.4 343 8.6
2011-06-17 07:41:15 51°14.806 2°54.848 349.7 12.4 343 8.5
2011-06-17 07:41:20 51°14.823 2°54.842 351 12.4 346 8.7
2011-06-17 07:41:25 51°14.839 2°54.835 352 12.3 345 8.4
2011-06-17 07:41:30 51°14.856 2°54.827 351.4 12.4 345 8.6
2011-06-17 07:41:35 51°14.872 2°54.819 350.8 12.4 343 8.3
2011-06-17 07:41:40 51°14.888 2°54.811 349.5 12.4 342 8.3
2011-06-17 07:41:44 51°14.901 2°54.803 348.3 12.5 339 8.2
2011-06-17 07:41:50 51°14.921 2°54.791 345.9 12.4 338 8
2011-06-17 07:41:55 51°14.936 2°54.78 343.5 12.4 335 8.1
2011-06-17 07:42:00 51°14.952 2°54.767 341.3 12.4 334 -999
2011-06-17 07:42:04 51°14.964 2°54.757 339.5 12.4 332 8.1
2011-06-17 07:42:09 51°14.979 2°54.744 337.9 12.5 331 7.9
2011-06-17 07:42:14 51°14.994 2°54.73 336.9 12.5 330 6
2011-06-17 07:42:20 51°15.012 2°54.714 335.8 12.5 330 -999
2011-06-17 07:42:24 51°15.024 2°54.702 335.3 12.5 330 7.8
2011-06-17 07:42:28 51°15.036 2°54.692 334.9 12.4 329 7.6
2011-06-17 07:42:35 51°15.057 2°54.672 334.7 12.3 329 7.4
2011-06-17 07:42:40 51°15.071 2°54.658 334.5 12.3 329 7.4
2011-06-17 07:42:45 51°15.086 2°54.644 334.2 12.2 328 7.1
2011-06-17 07:42:49 51°15.097 2°54.632 334 12.2 328 7.1
2011-06-17 07:42:54 51°15.112 2°54.618 334.1 12.1 329 7.1
2011-06-17 07:42:59 51°15.126 2°54.604 334.3 12.1 328 7.2
2011-06-17 07:43:05 51°15.143 2°54.588 334.6 12.1 329 7.1
2011-06-17 07:43:09 51°15.155 2°54.576 335 12.1 329 7.1
2011-06-17 07:43:14 51°15.169 2°54.563 335.3 12.1 330 7.3
2011-06-17 07:43:20 51°15.187 2°54.547 335.8 12.2 329 7.3
2011-06-17 07:43:26 51°15.204 2°54.53 336.4 12.3 330 7.5
2011-06-17 07:43:30 51°15.216 2°54.52 336.8 12.3 330 7.6
2011-06-17 07:43:35 51°15.231 2°54.506 336.9 12.3 330 7.5
2011-06-17 07:43:40 51°15.246 2°54.492 337.2 12.4 330 7.4
2011-06-17 07:43:45 51°15.261 2°54.479 337.2 12.4 330 5.7
2011-06-17 07:43:50 51°15.276 2°54.465 337 12.4 330 7.6
2011-06-17 07:43:55 51°15.291 2°54.451 336.8 12.5 330 7.6
2011-06-17 07:43:59 51°15.303 2°54.44 336.5 12.5 330 7.8
2011-06-17 07:44:05 51°15.321 2°54.423 336.5 12.6 329 5.8
2011-06-17 07:44:10 51°15.336 2°54.409 336.2 12.6 330 7.8
2011-06-17 07:44:15 51°15.351 2°54.395 336.6 12.6 330 7.8
2011-06-17 07:44:20 51°15.366 2°54.381 337.1 12.6 331 8.2
2011-06-17 07:44:25 51°15.381 2°54.367 337.5 12.7 330 6
2011-06-17 07:44:30 51°15.397 2°54.354 337.6 12.7 331 8
2011-06-17 07:44:34 51°15.409 2°54.343 337.6 12.7 331 8.2
2011-06-17 07:44:40 51°15.427 2°54.326 337.4 12.7 330 8.2
2011-06-17 07:44:45 51°15.443 2°54.312 337.1 12.8 329 8.3
2011-06-17 07:44:50 51°15.458 2°54.296 336 12.8 327 8.4
2011-06-17 07:44:54 51°15.469 2°54.283 334 12.9 325 8.5
2011-06-17 07:44:59 51°15.484 2°54.267 332.3 13 324 8.5
2011-06-17 07:45:05 51°15.501 2°54.246 331.2 13 323 8.6
2011-06-17 07:45:10 51°15.516 2°54.228 329.9 13 322 8.5
2011-06-17 07:45:14 51°15.527 2°54.214 329.1 13.1 321 8.6
2011-06-17 07:45:19 51°15.541 2°54.195 328 13.1 320 8.7
2011-06-17 07:45:24 51°15.555 2°54.177 327.2 13.1 320 8.8
2011-06-17 07:45:30 51°15.571 2°54.154 326.9 13.1 319 8.8
2011-06-17 07:45:35 51°15.585 2°54.135 326.4 13.1 319 8.9
2011-06-17 07:45:39 51°15.596 2°54.12 326 13.1 319 8.9
2011-06-17 07:45:45 51°15.613 2°54.097 326.1 13.1 320 9
2011-06-17 07:45:50 51°15.627 2°54.078 326.5 13.1 320 8.9
2011-06-17 07:45:55 51°15.641 2°54.06 326.7 13.1 321 9
2011-06-17 07:45:59 51°15.652 2°54.046 327.6 13.1 322 9.1
2011-06-17 07:46:05 51°15.67 2°54.025 328.9 13.1 323 9.1
2011-06-17 07:46:09 51°15.681 2°54.011 329.9 13.1 324 9.2
2011-06-17 07:46:15 51°15.699 2°53.992 331 13 325 9.2
2011-06-17 07:46:19 51°15.711 2°53.979 332.3 13 326 9.3
2011-06-17 07:46:24 51°15.726 2°53.963 333.2 13 327 9.3
2011-06-17 07:46:29 51°15.742 2°53.948 334.1 13 328 9.3
2011-06-17 07:46:34 51°15.757 2°53.933 334.5 12.9 328 9.3
2011-06-17 07:46:40 51°15.775 2°53.915 334.9 12.9 328 9.6
2011-06-17 07:46:45 51°15.79 2°53.9 335.2 12.9 328 9.4
2011-06-17 07:46:50 51°15.805 2°53.884 335 12.9 327 9.5
2011-06-17 07:46:55 51°15.821 2°53.869 334.4 12.9 327 9.5
2011-06-17 07:47:00 51°15.836 2°53.853 334 12.9 326 9.5
2011-06-17 07:47:04 51°15.847 2°53.84 332.8 13 325 9.6
2011-06-17 07:47:08 51°15.859 2°53.827 331.9 12.9 325 9.6
2011-06-17 07:47:14 51°15.876 2°53.807 330.7 13 323 9.7
2011-06-17 07:47:20 51°15.893 2°53.785 329.5 13 322 9.7
2011-06-17 07:47:24 51°15.905 2°53.771 328.4 13 321 9.8
2011-06-17 07:47:29 51°15.919 2°53.753 327.8 13 321 9.7
2011-06-17 07:47:35 51°15.935 2°53.73 327.5 13 320 9.7
2011-06-17 07:47:41 51°15.952 2°53.708 327 13 320 9.9
2011-06-17 07:47:45 51°15.963 2°53.694 327 13 320 9.9
2011-06-17 07:47:50 51°15.977 2°53.675 326.8 13 320 9.8
2011-06-17 07:47:55 51°15.991 2°53.657 326.7 13 321 9.9
2011-06-17 07:48:00 51°16.005 2°53.638 327.3 13 320 9.9
2011-06-17 07:48:05 51°16.019 2°53.62 327.4 13 321 9.9
2011-06-17 07:48:09 51°16.03 2°53.606 327.8 13 322 10.1
2011-06-17 07:48:14 51°16.044 2°53.589 328.5 13 322 10.1
2011-06-17 07:48:19 51°16.058 2°53.571 328.9 13 323 10.2
2011-06-17 07:48:25 51°16.076 2°53.551 329.8 12.9 324 10.1
2011-06-17 07:48:29 51°16.088 2°53.538 331.3 12.9 325 10.3
2011-06-17 07:48:35 51°16.105 2°53.519 331.8 12.9 326 10.2
2011-06-17 07:48:40 51°16.12 2°53.504 333 12.9 327 10.3
2011-06-17 07:48:45 51°16.135 2°53.487 333.2 12.9 326 10.5
2011-06-17 07:48:50 51°16.15 2°53.472 333.2 12.9 326 10.4
2011-06-17 07:48:55 51°16.165 2°53.455 333 12.9 325 10.5
2011-06-17 07:49:00 51°16.18 2°53.439 332.5 12.9 326 10.6
2011-06-17 07:49:05 51°16.194 2°53.423 332.5 12.9 325 10.5
2011-06-17 07:49:10 51°16.209 2°53.407 332.5 12.9 325 10.6
2011-06-17 07:49:15 51°16.224 2°53.391 332.3 12.9 325 10.7
2011-06-17 07:49:20 51°16.238 2°53.374 332 12.9 324 10.7
2011-06-17 07:49:25 51°16.252 2°53.356 331.5 12.9 322 10.6
2011-06-17 07:49:30 51°16.266 2°53.339 330.2 12.9 321 10.7
2011-06-17 07:49:34 51°16.278 2°53.324 328.9 12.9 321 10.8
2011-06-17 07:49:40 51°16.294 2°53.302 328.2 12.9 321 10.7
2011-06-17 07:49:45 51°16.308 2°53.284 327.7 13 320 10.7
2011-06-17 07:49:49 51°16.319 2°53.269 327 13 319 10.9
2011-06-17 07:49:54 51°16.333 2°53.25 326.7 13 319 10.7
2011-06-17 07:50:00 51°16.349 2°53.228 326.3 13 319 10.8
2011-06-17 07:50:05 51°16.363 2°53.21 326.2 12.9 321 11
2011-06-17 07:50:10 51°16.377 2°53.193 329 12.9 323 10.9
2011-06-17 07:50:15 51°16.392 2°53.177 330.5 12.8 324 10.9
2011-06-17 07:50:19 51°16.404 2°53.164 332 12.8 326 10.7
2011-06-17 07:50:25 51°16.422 2°53.146 334.1 12.7 328 10.8
2011-06-17 07:50:30 51°16.437 2°53.132 336 12.7 330 10.7
2011-06-17 07:50:35 51°16.452 2°53.118 336.9 12.7 330 10.8
2011-06-17 07:50:39 51°16.465 2°53.108 338.1 12.7 332 10.8
2011-06-17 07:50:44 51°16.48 2°53.094 338.8 12.7 332 10.8
2011-06-17 07:50:50 51°16.499 2°53.079 339.3 12.7 333 10.8
2011-06-17 07:50:55 51°16.515 2°53.067 339.5 12.7 333 10.7
2011-06-17 07:50:59 51°16.527 2°53.057 339.6 12.6 334 10.6
2011-06-17 07:51:04 51°16.543 2°53.044 339.8 12.7 334 10.8
2011-06-17 07:51:09 51°16.559 2°53.031 339.5 12.7 333 10.7
2011-06-17 07:51:15 51°16.577 2°53.016 338.6 12.6 332 10.6
2011-06-17 07:51:19 51°16.589 2°53.005 337.5 12.6 332 10.7
2011-06-17 07:51:24 51°16.605 2°52.991 336.8 12.6 330 10.5
2011-06-17 07:51:30 51°16.623 2°52.974 335.9 12.7 330 10.4
2011-06-17 07:51:35 51°16.638 2°52.96 335.4 12.7 330 10.4
2011-06-17 07:51:39 51°16.65 2°52.949 334.7 12.6 329 10.2
2011-06-17 07:51:44 51°16.665 2°52.934 334.4 12.6 329 10.3
2011-06-17 07:51:49 51°16.68 2°52.918 333.5 12.6 328 9.9
2011-06-17 07:51:54 51°16.694 2°52.904 332.8 12.6 328 10.1
2011-06-17 07:52:00 51°16.712 2°52.886 332.8 12.6 328 9.8
2011-06-17 07:52:05 51°16.727 2°52.871 332.7 12.5 328 9.7
2011-06-17 07:52:10 51°16.741 2°52.856 332.7 12.5 328 9.6
2011-06-17 07:52:15 51°16.755 2°52.841 332.7 12.4 328 9.2
2011-06-17 07:52:20 51°16.77 2°52.826 332.5 12.4 327 9.1
2011-06-17 07:52:24 51°16.781 2°52.814 332.2 12.3 327 8.6
2011-06-17 07:52:30 51°16.799 2°52.797 332.1 12.2 327 8.6
2011-06-17 07:52:35 51°16.813 2°52.782 331.9 12.2 327 8.5
2011-06-17 07:52:40 51°16.827 2°52.767 332 12.2 327 8.5
2011-06-17 07:52:44 51°16.838 2°52.755 332.3 12.2 327 8.5
2011-06-17 07:52:50 51°16.855 2°52.738 332.3 12.2 327 8.2
2011-06-17 07:52:55 51°16.869 2°52.723 331.9 12.2 326 8.4
2011-06-17 07:53:00 51°16.883 2°52.708 331.8 12.2 326 8.3
2011-06-17 07:53:04 51°16.895 2°52.696 331.8 12.2 327 8.4
2011-06-17 07:53:10 51°16.912 2°52.678 331.8 12.2 326 8.3
2011-06-17 07:53:15 51°16.926 2°52.663 331.6 12.3 326 8.5
2011-06-17 07:53:20 51°16.94 2°52.649 331.8 12.3 327 8.6
2011-06-17 07:53:25 51°16.955 2°52.634 332.4 12.3 327 8.9
2011-06-17 07:53:29 51°16.966 2°52.622 332.6 12.4 327 8.9
2011-06-17 07:53:35 51°16.983 2°52.604 332.7 12.4 327 8.7
2011-06-17 07:53:40 51°16.998 2°52.59 333 12.4 329 8.9
2011-06-17 07:53:45 51°17.013 2°52.578 334.4 12.3 330 8.7
2011-06-17 07:53:49 51°17.025 2°52.568 336.5 12.2 333 8.7
2011-06-17 07:53:55 51°17.044 2°52.553 337.7 12.2 333 8.5
2011-06-17 07:54:00 51°17.059 2°52.543 339.8 12.1 336 8.8
2011-06-17 07:54:05 51°17.074 2°52.532 341.2 12.1 336 8.5
2011-06-17 07:54:10 51°17.09 2°52.522 341.6 12.1 337 8.7
2011-06-17 07:54:15 51°17.106 2°52.511 342.5 12.1 338 8.8
2011-06-17 07:54:20 51°17.121 2°52.501 342.7 12.1 338 8.9
2011-06-17 07:54:25 51°17.137 2°52.491 342.8 12.1 337 9
2011-06-17 07:54:30 51°17.152 2°52.481 343 12.2 337 9.1
2011-06-17 07:54:35 51°17.168 2°52.469 342.5 12.2 336 9
2011-06-17 07:54:40 51°17.183 2°52.457 341.2 12.3 334 9
2011-06-17 07:54:45 51°17.199 2°52.445 339.8 12.2 333 9.1
2011-06-17 07:54:50 51°17.214 2°52.433 338.9 12.3 333 9.2
2011-06-17 07:54:55 51°17.229 2°52.42 338.3 12.3 332 9.1
2011-06-17 07:55:00 51°17.244 2°52.407 337.5 12.3 331 9.3
2011-06-17 07:55:05 51°17.259 2°52.393 336.7 12.3 330 9.2
2011-06-17 07:55:09 51°17.271 2°52.382 336 12.4 330 9.5
2011-06-17 07:55:15 51°17.288 2°52.365 335.4 12.4 329 9.5
2011-06-17 07:55:20 51°17.303 2°52.351 334.8 12.3 329 9.3
2011-06-17 07:55:25 51°17.317 2°52.336 334.7 12.4 328 9.4
2011-06-17 07:55:29 51°17.329 2°52.325 334.4 12.4 329 9.5
2011-06-17 07:55:35 51°17.347 2°52.308 334.3 12.3 329 9.4
2011-06-17 07:55:40 51°17.361 2°52.294 334.3 12.3 329 9.4
2011-06-17 07:55:45 51°17.376 2°52.28 334.8 12.4 330 9.5
2011-06-17 07:55:49 51°17.388 2°52.269 335.1 12.4 329 9.6
2011-06-17 07:55:55 51°17.406 2°52.253 335.4 12.3 331 10
2011-06-17 07:56:00 51°17.421 2°52.239 335.9 12.4 330 10
2011-06-17 07:56:05 51°17.436 2°52.225 335.8 12.4 330 10.5
2011-06-17 07:56:09 51°17.448 2°52.214 335.8 12.4 330 10.2
2011-06-17 07:56:15 51°17.466 2°52.198 336 12.4 330 10.1
2011-06-17 07:56:20 51°17.481 2°52.185 336.1 12.3 331 10.5
2011-06-17 07:56:25 51°17.496 2°52.172 336.7 12.3 332 10.3
2011-06-17 07:56:29 51°17.508 2°52.161 336.9 12.3 331 10.4
2011-06-17 07:56:35 51°17.526 2°52.146 337.3 12.3 333 10.4
2011-06-17 07:56:40 51°17.541 2°52.134 338.3 12.3 333 10.3
2011-06-17 07:56:45 51°17.556 2°52.123 339.3 12.3 335 10.2
2011-06-17 07:56:49 51°17.569 2°52.114 340.4 12.3 335 10.4
2011-06-17 07:56:55 51°17.587 2°52.1 340.8 12.2 336 10.3
2011-06-17 07:57:00 51°17.603 2°52.089 341.4 12.2 336 10.3
2011-06-17 07:57:05 51°17.618 2°52.078 341.9 12.2 336 10.5
2011-06-17 07:57:10 51°17.634 2°52.067 341.4 12.3 335 10.2
2011-06-17 07:57:15 51°17.649 2°52.055 340.6 12.2 334 10
2011-06-17 07:57:20 51°17.664 2°52.043 339.5 12.2 333 9.9
2011-06-17 07:57:25 51°17.679 2°52.03 338.9 12.2 332 9.8
2011-06-17 07:57:30 51°17.694 2°52.017 338.4 12.2 332 9.8
2011-06-17 07:57:35 51°17.709 2°52.004 338.1 12.2 332 9.6
2011-06-17 07:57:40 51°17.724 2°51.992 337.6 12.2 331 9.2
2011-06-17 07:57:45 51°17.739 2°51.979 337.6 12.1 332 9.4
2011-06-17 07:57:49 51°17.751 2°51.97 338.3 12.1 332 9.4
2011-06-17 07:57:55 51°17.769 2°51.954 338.3 12.1 332 9.3
2011-06-17 07:58:00 51°17.783 2°51.941 338.2 12.1 332 9.2
2011-06-17 07:58:05 51°17.798 2°51.928 337.6 12.1 331 9.3
2011-06-17 07:58:09 51°17.81 2°51.918 337.4 12.1 331 9.2
2011-06-17 07:58:15 51°17.827 2°51.902 337 12.1 331 9
2011-06-17 07:58:20 51°17.842 2°51.889 337.1 12.2 331 9.2
2011-06-17 07:58:25 51°17.857 2°51.876 337.3 12.2 331 9.1
2011-06-17 07:58:29 51°17.869 2°51.867 337.3 12.2 333 9.2
2011-06-17 07:58:35 51°17.887 2°51.852 338.1 12.2 332 9.2
2011-06-17 07:58:40 51°17.903 2°51.84 339.6 12.2 335 9.4
2011-06-17 07:58:45 51°17.918 2°51.829 340.5 12.2 335 9.2
2011-06-17 07:58:49 51°17.931 2°51.821 341.6 12.2 336 9.5
2011-06-17 07:58:55 51°17.949 2°51.808 342 12.2 337 9.6
2011-06-17 07:59:00 51°17.965 2°51.797 342.7 12.2 337 9.5
2011-06-17 07:59:05 51°17.98 2°51.787 343 12.3 337 9.4
2011-06-17 07:59:09 51°17.993 2°51.779 343.4 12.2 338 9.6
2011-06-17 07:59:15 51°18.012 2°51.766 343.1 12.3 336 9.5
2011-06-17 07:59:20 51°18.027 2°51.755 342.2 12.3 336 9.6
2011-06-17 07:59:25 51°18.043 2°51.743 341.8 12.3 336 9.8
2011-06-17 07:59:30 51°18.058 2°51.731 341.2 12.3 335 9.8
2011-06-17 07:59:35 51°18.073 2°51.719 340.6 12.3 334 9.8
2011-06-17 07:59:40 51°18.089 2°51.707 340.4 12.4 333 10
2011-06-17 07:59:45 51°18.104 2°51.695 339.6 12.4 333 9.7
2011-06-17 07:59:50 51°18.119 2°51.682 339.1 12.4 332 10
2011-06-17 07:59:55 51°18.135 2°51.67 338.6 12.4 333 10.2
2011-06-17 08:00:00 51°18.15 2°51.657 338.7 12.4 332 10.2
2011-06-17 08:00:05 51°18.165 2°51.645 338.7 12.4 332 10.2
2011-06-17 08:00:09 51°18.177 2°51.634 338.8 12.5 332 10.5
2011-06-17 08:00:15 51°18.195 2°51.618 338.3 12.5 332 10.5
2011-06-17 08:00:20 51°18.21 2°51.605 338.3 12.4 332 10.5
2011-06-17 08:00:25 51°18.226 2°51.592 339 12.4 333 10.6
2011-06-17 08:00:29 51°18.238 2°51.582 339 12.4 333 10.8
2011-06-17 08:00:35 51°18.256 2°51.567 339 12.4 332 10.8
2011-06-17 08:00:40 51°18.272 2°51.554 339 12.5 332 11.1
2011-06-17 08:00:45 51°18.287 2°51.541 338.9 12.5 332 11.1
2011-06-17 08:00:49 51°18.3 2°51.531 339 12.5 333 11
2011-06-17 08:00:55 51°18.318 2°51.517 339.2 12.4 333 11.4
2011-06-17 08:01:00 51°18.334 2°51.505 340 12.4 334 11.2
2011-06-17 08:01:05 51°18.349 2°51.493 340.3 12.4 335 11.4
2011-06-17 08:01:09 51°18.362 2°51.484 341 12.4 335 11.7
2011-06-17 08:01:15 51°18.381 2°51.471 341.7 12.4 336 11.4
2011-06-17 08:01:20 51°18.396 2°51.46 342.4 12.4 337 11.6
2011-06-17 08:01:25 51°18.412 2°51.449 342.8 12.4 336 12
2011-06-17 08:01:29 51°18.424 2°51.44 342.9 12.4 337 12.1
2011-06-17 08:01:35 51°18.443 2°51.426 342.8 12.3 335 12.1
2011-06-17 08:01:40 51°18.459 2°51.416 342.8 12.3 337 12.3
2011-06-17 08:01:45 51°18.474 2°51.404 342.6 12.4 335 12.3
2011-06-17 08:01:50 51°18.49 2°51.393 342.7 12.4 336 12.2
2011-06-17 08:01:55 51°18.506 2°51.382 342.7 12.3 336 12.5
2011-06-17 08:02:00 51°18.521 2°51.371 343 12.3 337 12.6
2011-06-17 08:02:05 51°18.537 2°51.36 343.2 12.3 336 12.7
2011-06-17 08:02:10 51°18.553 2°51.348 342.7 12.3 335 12.9
2011-06-17 08:02:15 51°18.568 2°51.337 342.1 12.4 335 12.6
2011-06-17 08:02:20 51°18.584 2°51.325 342.2 12.4 335 12.7
2011-06-17 08:02:25 51°18.599 2°51.314 342.6 12.4 336 13
2011-06-17 08:02:29 51°18.612 2°51.304 342 12.4 334 13
2011-06-17 08:02:35 51°18.63 2°51.29 341.6 12.4 334 13
2011-06-17 08:02:40 51°18.646 2°51.278 341.3 12.4 334 13
2011-06-17 08:02:45 51°18.661 2°51.266 341.3 12.4 334 13.2
2011-06-17 08:02:49 51°18.674 2°51.256 341.3 12.4 334 13.2
2011-06-17 08:02:55 51°18.692 2°51.241 341.2 12.4 334 13.3
2011-06-17 08:03:00 51°18.708 2°51.229 341.1 12.4 333 13.4
2011-06-17 08:03:05 51°18.723 2°51.216 340.8 12.4 334 13.6
2011-06-17 08:03:09 51°18.735 2°51.206 340.3 12.5 333 13.4
2011-06-17 08:03:15 51°18.753 2°51.191 340 12.4 333 13.6
2011-06-17 08:03:20 51°18.768 2°51.179 340.2 12.3 333 13.4
2011-06-17 08:03:25 51°18.784 2°51.166 340.4 12.4 333 13.6
2011-06-17 08:03:30 51°18.799 2°51.153 340.3 12.4 333 13.5
2011-06-17 08:03:35 51°18.814 2°51.141 340.4 12.4 333 13.5
2011-06-17 08:03:40 51°18.83 2°51.128 340.4 12.4 333 13.6
2011-06-17 08:03:45 51°18.845 2°51.115 340.2 12.4 332 13.8
2011-06-17 08:03:50 51°18.861 2°51.103 339.9 12.4 333 13.7
2011-06-17 08:03:55 51°18.876 2°51.09 340.2 12.5 332 13.8
2011-06-17 08:04:00 51°18.891 2°51.078 340.3 12.4 333 14
2011-06-17 08:04:05 51°18.906 2°51.065 340.5 12.4 332 13.7
2011-06-17 08:04:10 51°18.921 2°51.051 339.9 12.5 331 13.8
2011-06-17 08:04:15 51°18.937 2°51.038 339.2 12.5 332 14
2011-06-17 08:04:20 51°18.952 2°51.024 339.1 12.5 330 13.8
2011-06-17 08:04:25 51°18.967 2°51.011 338.7 12.4 331 13.9
2011-06-17 08:04:30 51°18.982 2°50.998 339 12.5 331 13.9
2011-06-17 08:04:35 51°18.997 2°50.984 338.6 12.6 330 14
2011-06-17 08:04:40 51°19.012 2°50.97 338.1 12.5 331 14
2011-06-17 08:04:45 51°19.027 2°50.956 337.9 12.5 331 13.8
2011-06-17 08:04:49 51°19.039 2°50.946 338.3 12.5 331 14
2011-06-17 08:04:55 51°19.058 2°50.93 339 12.5 332 13.9
2011-06-17 08:05:00 51°19.073 2°50.917 339.9 12.5 333 13.7
2011-06-17 08:05:05 51°19.089 2°50.905 340.5 12.5 332 14
2011-06-17 08:05:10 51°19.104 2°50.892 340.6 12.4 333 13.6
2011-06-17 08:05:15 51°19.119 2°50.88 341.1 12.4 333 13.9
2011-06-17 08:05:20 51°19.134 2°50.868 341 12.3 334 14
2011-06-17 08:05:25 51°19.15 2°50.856 341.3 12.4 333 14.2
2011-06-17 08:05:29 51°19.162 2°50.846 341.6 12.4 335 13.9
2011-06-17 08:05:35 51°19.181 2°50.832 341.7 12.4 334 13.7
2011-06-17 08:05:40 51°19.196 2°50.82 341.8 12.3 335 13.5
2011-06-17 08:05:45 51°19.212 2°50.808 341.9 12.4 334 13.9
2011-06-17 08:05:50 51°19.227 2°50.796 341.7 12.4 333 13.6
2011-06-17 08:05:55 51°19.243 2°50.783 341 12.4 332 13.3
2011-06-17 08:06:00 51°19.258 2°50.77 340.4 12.5 332 13.6
2011-06-17 08:06:05 51°19.273 2°50.757 339.8 12.5 331 13.3
2011-06-17 08:06:10 51°19.289 2°50.744 339.2 12.5 332 13.4
2011-06-17 08:06:15 51°19.304 2°50.731 339.4 12.5 332 13.3
2011-06-17 08:06:20 51°19.319 2°50.717 339.5 12.5 331 13.1
2011-06-17 08:06:25 51°19.334 2°50.703 339.2 12.6 330 13
2011-06-17 08:06:30 51°19.35 2°50.69 338.9 12.5 331 12.7
2011-06-17 08:06:35 51°19.365 2°50.677 339.2 12.5 332 12.6
2011-06-17 08:06:40 51°19.38 2°50.664 339.6 12.4 333 12.2
2011-06-17 08:06:45 51°19.395 2°50.652 339.9 12.4 333 11.9
2011-06-17 08:06:50 51°19.411 2°50.639 340.4 12.5 332 11.9
2011-06-17 08:06:55 51°19.426 2°50.626 340.3 12.5 333 11.7
2011-06-17 08:07:00 51°19.441 2°50.613 340.3 12.5 333 11.6
2011-06-17 08:07:05 51°19.457 2°50.601 340.1 12.5 333 11.7
2011-06-17 08:07:09 51°19.469 2°50.591 339.8 12.5 332 11.7
2011-06-17 08:07:15 51°19.488 2°50.575 339.9 12.5 332 11.3
2011-06-17 08:07:20 51°19.503 2°50.563 340.2 12.4 333 11.4
2011-06-17 08:07:25 51°19.519 2°50.55 340.8 12.5 333 11.4
2011-06-17 08:07:29 51°19.531 2°50.541 341.2 12.5 334 11.2
2011-06-17 08:07:35 51°19.55 2°50.526 341.2 12.5 334 11.1
2011-06-17 08:07:40 51°19.565 2°50.514 341.2 12.5 335 11
2011-06-17 08:07:45 51°19.581 2°50.502 341.6 12.5 335 10.8
2011-06-17 08:07:50 51°19.596 2°50.491 342.1 12.5 336 10.8
2011-06-17 08:07:55 51°19.612 2°50.479 342.4 12.5 335 11.2
2011-06-17 08:08:00 51°19.628 2°50.467 341.7 12.5 335 11.1
2011-06-17 08:08:05 51°19.644 2°50.454 341.1 12.6 334 11.5
2011-06-17 08:08:09 51°19.656 2°50.444 340.3 12.6 332 11.6
2011-06-17 08:08:15 51°19.675 2°50.429 339.4 12.6 333 11.7
2011-06-17 08:08:20 51°19.69 2°50.415 339.3 12.7 332 11.9
2011-06-17 08:08:25 51°19.706 2°50.402 339.1 12.7 332 12
2011-06-17 08:08:29 51°19.718 2°50.392 338.9 12.7 332 12
2011-06-17 08:08:35 51°19.737 2°50.376 339.4 12.7 332 12.2
2011-06-17 08:08:40 51°19.752 2°50.363 339.6 12.7 332 12.7
2011-06-17 08:08:45 51°19.768 2°50.35 339.5 12.7 332 12.6
2011-06-17 08:08:50 51°19.783 2°50.336 339.2 12.7 331 12.8
2011-06-17 08:08:55 51°19.799 2°50.322 338.8 12.7 331 12.9
2011-06-17 08:09:00 51°19.814 2°50.309 338.4 12.7 332 12.8
2011-06-17 08:09:05 51°19.829 2°50.295 338.7 12.7 331 12.9
2011-06-17 08:09:09 51°19.842 2°50.284 338.6 12.7 331 13
2011-06-17 08:09:15 51°19.86 2°50.268 338.6 12.6 331 12.7
2011-06-17 08:09:20 51°19.876 2°50.255 338.9 12.7 331 12.8
2011-06-17 08:09:25 51°19.891 2°50.241 339 12.7 331 13
2011-06-17 08:09:29 51°19.904 2°50.231 339.3 12.6 332 13
2011-06-17 08:09:35 51°19.922 2°50.215 339.8 12.6 332 13.4
2011-06-17 08:09:40 51°19.938 2°50.202 339.9 12.6 332 13.5
2011-06-17 08:09:45 51°19.953 2°50.189 340.4 12.6 333 13.6
2011-06-17 08:09:50 51°19.969 2°50.177 340.7 12.6 333 13.6
2011-06-17 08:09:55 51°19.984 2°50.164 341.5 12.6 334 14.1
2011-06-17 08:10:00 51°20 2°50.152 342.2 12.5 334 14.4
2011-06-17 08:10:05 51°20.016 2°50.141 342.1 12.4 334 14.4
2011-06-17 08:10:09 51°20.028 2°50.131 342.7 12.3 335 14.9
2011-06-17 08:10:15 51°20.046 2°50.117 343.2 12.3 335 15.1
2011-06-17 08:10:20 51°20.062 2°50.106 343.1 12.1 336 15.1
2011-06-17 08:10:25 51°20.077 2°50.094 343.2 12.2 333 15.3
2011-06-17 08:10:29 51°20.089 2°50.085 342.4 12 333 15.5
2011-06-17 08:10:35 51°20.106 2°50.07 342 11.7 333 15.7
2011-06-17 08:10:40 51°20.12 2°50.058 341.4 11.3 332 15.8
2011-06-17 08:10:45 51°20.133 2°50.047 341 11.1 332 16.2
2011-06-17 08:10:49 51°20.143 2°50.037 340.1 10.8 330 16.4
2011-06-17 08:10:55 51°20.158 2°50.023 339.5 10.6 329 16.4
2011-06-17 08:11:00 51°20.171 2°50.011 339.1 10.3 329 16.6
2011-06-17 08:11:05 51°20.183 2°50 338.6 10.1 330 17.2
2011-06-17 08:11:10 51°20.195 2°49.988 338.3 10 328 17.2
2011-06-17 08:11:15 51°20.206 2°49.977 338.4 9.8 329 17.4
2011-06-17 08:11:20 51°20.218 2°49.965 338.5 9.8 327 17.7
2011-06-17 08:11:25 51°20.229 2°49.953 338.3 9.7 328 17.6
2011-06-17 08:11:29 51°20.238 2°49.944 338.3 9.7 327 17.8
2011-06-17 08:11:35 51°20.252 2°49.931 339 9.7 329 18.3
2011-06-17 08:11:40 51°20.263 2°49.92 339.6 9.5 329 18
2011-06-17 08:11:45 51°20.274 2°49.909 339.9 9.5 330 18.4
2011-06-17 08:11:49 51°20.284 2°49.901 340.6 9.5 329 18.4
2011-06-17 08:11:55 51°20.297 2°49.888 341.2 9.4 330 18.8
2011-06-17 08:12:00 51°20.308 2°49.878 341 9.4 330 19.1
2011-06-17 08:12:05 51°20.32 2°49.867 341.1 9.4 330 19.3
2011-06-17 08:12:09 51°20.328 2°49.859 341.2 9.4 330 19.5
2011-06-17 08:12:15 51°20.342 2°49.846 341.4 9.4 330 19.4
2011-06-17 08:12:20 51°20.353 2°49.836 341.2 9.4 329 19.7
2011-06-17 08:12:25 51°20.364 2°49.825 341.2 9.4 330 19.7
2011-06-17 08:12:30 51°20.376 2°49.814 341.1 9.4 329 19.7
2011-06-17 08:12:35 51°20.387 2°49.804 340.6 9.4 329 20.1
2011-06-17 08:12:40 51°20.398 2°49.794 340.5 9.3 330 20.3
2011-06-17 08:12:45 51°20.409 2°49.783 340.7 9.4 329 20.6
2011-06-17 08:12:49 51°20.418 2°49.775 341.1 9.4 330 20.8
2011-06-17 08:12:55 51°20.432 2°49.763 341.3 9.3 331 20.6
2011-06-17 08:13:00 51°20.443 2°49.753 341.9 9.3 331 21
2011-06-17 08:13:05 51°20.454 2°49.743 341.8 9.3 331 21.2
2011-06-17 08:13:09 51°20.463 2°49.735 341.6 9.3 332 21
2011-06-17 08:13:15 51°20.477 2°49.723 342.2 9.3 331 21.4
2011-06-17 08:13:20 51°20.489 2°49.714 342.3 9.3 333 21.2
2011-06-17 08:13:25 51°20.5 2°49.704 342.2 9.4 331 21.4
2011-06-17 08:13:30 51°20.511 2°49.694 342.1 9.4 332 21.8
2011-06-17 08:13:35 51°20.523 2°49.684 341.8 9.2 331 21.7
2011-06-17 08:13:40 51°20.534 2°49.673 341.4 9.2 330 22
2011-06-17 08:13:45 51°20.545 2°49.663 341.1 9.2 330 21.9
2011-06-17 08:13:49 51°20.554 2°49.655 340.9 9.2 329 22
2011-06-17 08:13:55 51°20.567 2°49.642 340.5 9.1 328 21.6
2011-06-17 08:14:00 51°20.577 2°49.631 340.3 9.1 328 22
2011-06-17 08:14:05 51°20.588 2°49.62 339.7 9 327 21.9
2011-06-17 08:14:10 51°20.598 2°49.61 339.4 9 327 22.1
2011-06-17 08:14:15 51°20.609 2°49.599 339.1 9 327 22.2
2011-06-17 08:14:20 51°20.62 2°49.588 339 9 326 22.2
2011-06-17 08:14:25 51°20.63 2°49.577 338.6 9 326 22.2
2011-06-17 08:14:29 51°20.638 2°49.567 338.4 9 325 22.1
2011-06-17 08:14:35 51°20.651 2°49.554 338.2 9 326 22.1
2011-06-17 08:14:40 51°20.661 2°49.542 338 9 325 22.2
2011-06-17 08:14:45 51°20.671 2°49.531 338 9 326 22.2
2011-06-17 08:14:49 51°20.679 2°49.522 337.7 9 325 22
2011-06-17 08:14:55 51°20.691 2°49.509 337.9 9 326 21.9
2011-06-17 08:15:00 51°20.702 2°49.497 338.1 9 325 22
2011-06-17 08:15:05 51°20.712 2°49.486 338.1 9 325 22.2
2011-06-17 08:15:09 51°20.72 2°49.477 338.3 9 326 22.3
2011-06-17 08:15:15 51°20.732 2°49.463 338.2 9 325 22.2
2011-06-17 08:15:20 51°20.743 2°49.452 338.3 9 326 22.3
2011-06-17 08:15:25 51°20.753 2°49.44 337.9 9 325 22.2
2011-06-17 08:15:30 51°20.763 2°49.43 338.3 8.9 326 22.2
2011-06-17 08:15:35 51°20.773 2°49.418 338.5 9 325 22.1
2011-06-17 08:15:40 51°20.784 2°49.407 338.7 8.9 326 22.3
2011-06-17 08:15:45 51°20.794 2°49.395 338.7 9 325 22.4
2011-06-17 08:15:50 51°20.804 2°49.384 338.7 9 326 22.1
2011-06-17 08:15:55 51°20.814 2°49.374 339.4 8.9 326 22.2
2011-06-17 08:16:00 51°20.825 2°49.363 340.2 8.9 327 22.4
2011-06-17 08:16:05 51°20.835 2°49.352 340.5 8.9 327 22.1
2011-06-17 08:16:09 51°20.843 2°49.343 340.5 8.9 327 22.3
2011-06-17 08:16:15 51°20.856 2°49.331 340.6 9 327 22.1
2011-06-17 08:16:20 51°20.867 2°49.32 340.8 9.1 328 22.2
2011-06-17 08:16:25 51°20.878 2°49.309 341.3 9.2 327 21.9
2011-06-17 08:16:29 51°20.886 2°49.3 341.9 9.2 328 21.9
2011-06-17 08:16:35 51°20.9 2°49.288 341.8 9.3 329 22.1
2011-06-17 08:16:40 51°20.911 2°49.277 342.3 9.4 329 21.9
2011-06-17 08:16:45 51°20.922 2°49.267 342.8 9.5 330 21.8
2011-06-17 08:16:49 51°20.932 2°49.258 343.1 9.7 329 21.8
2011-06-17 08:16:55 51°20.946 2°49.244 342.8 10 330 21.4
2011-06-17 08:17:00 51°20.958 2°49.233 342.7 10.2 330 21.5
2011-06-17 08:17:05 51°20.971 2°49.221 342.8 10.4 329 21.8
2011-06-17 08:17:10 51°20.984 2°49.21 342.7 10.6 331 21.9
2011-06-17 08:17:15 51°20.997 2°49.198 342.7 10.9 330 21.3
2011-06-17 08:17:20 51°21.011 2°49.186 342.5 11.2 331 21.4
2011-06-17 08:17:25 51°21.024 2°49.174 342.8 11.3 331 21.4
2011-06-17 08:17:30 51°21.038 2°49.161 342.5 11.5 330 21.4
2011-06-17 08:17:35 51°21.053 2°49.148 341.9 11.8 331 21.6
2011-06-17 08:17:40 51°21.067 2°49.134 341.9 12 330 21.2
2011-06-17 08:17:45 51°21.082 2°49.121 341.7 12.2 330 21.3
2011-06-17 08:17:50 51°21.097 2°49.107 341.6 12.4 330 21.5
2011-06-17 08:17:55 51°21.112 2°49.094 341.5 12.5 331 21.2
2011-06-17 08:18:00 51°21.128 2°49.082 343.2 12.5 333 21.2
2011-06-17 08:18:05 51°21.143 2°49.069 344.4 12.6 333 21.1
2011-06-17 08:18:09 51°21.156 2°49.061 346 12.5 336 20.8
2011-06-17 08:18:15 51°21.175 2°49.047 347 12.6 337 21.1
2011-06-17 08:18:20 51°21.191 2°49.037 348.2 12.5 338 20.7
2011-06-17 08:18:25 51°21.207 2°49.027 349.1 12.4 338 20.7
2011-06-17 08:18:29 51°21.22 2°49.019 350.1 12.4 341 20.2
2011-06-17 08:18:35 51°21.24 2°49.006 350.3 12.5 338 19.6
2011-06-17 08:18:40 51°21.256 2°48.998 350.7 12.4 341 19.3
2011-06-17 08:18:45 51°21.272 2°48.988 350.9 12.5 339 19.4
2011-06-17 08:18:50 51°21.288 2°48.979 351.4 12.4 341 19.2
2011-06-17 08:18:55 51°21.304 2°48.969 351.5 12.4 339 19.2
2011-06-17 08:19:00 51°21.321 2°48.96 350.8 12.4 340 19.3
2011-06-17 08:19:05 51°21.337 2°48.95 350.7 12.4 339 18.9
2011-06-17 08:19:09 51°21.35 2°48.943 351 12.4 340 19.2
2011-06-17 08:19:15 51°21.369 2°48.931 350.8 12.5 339 19.7
2011-06-17 08:19:20 51°21.385 2°48.922 350.5 12.4 340 20
2011-06-17 08:19:25 51°21.401 2°48.912 350.7 12.5 339 20.2
2011-06-17 08:19:29 51°21.414 2°48.904 350.4 12.5 340 20.3
2011-06-17 08:19:35 51°21.434 2°48.892 350.2 12.6 338 20.4
2011-06-17 08:19:40 51°21.45 2°48.882 349.7 12.6 339 20.8
2011-06-17 08:19:45 51°21.466 2°48.872 349.6 12.6 339 21
2011-06-17 08:19:49 51°21.48 2°48.864 349.4 12.6 339 20.9
2011-06-17 08:19:55 51°21.499 2°48.852 349.1 12.6 338 21.5
2011-06-17 08:20:00 51°21.515 2°48.842 348.3 12.6 338 21.2
2011-06-17 08:20:05 51°21.531 2°48.83 347.7 12.6 336 21.8
2011-06-17 08:20:10 51°21.547 2°48.818 347.3 12.7 336 21.8
2011-06-17 08:20:15 51°21.563 2°48.807 346.3 12.6 335 22
2011-06-17 08:20:20 51°21.579 2°48.794 346.3 12.8 334 22.3
2011-06-17 08:20:25 51°21.595 2°48.783 345.9 12.7 335 22.5
2011-06-17 08:20:30 51°21.611 2°48.77 345.6 12.7 334 22.1
2011-06-17 08:20:35 51°21.627 2°48.759 345.7 12.8 336 22.4
2011-06-17 08:20:40 51°21.643 2°48.747 346.4 12.7 336 22.4
2011-06-17 08:20:45 51°21.659 2°48.737 346.7 12.6 337 22.5
2011-06-17 08:20:49 51°21.672 2°48.728 347.8 12.6 337 22.7
2011-06-17 08:20:55 51°21.692 2°48.715 348 12.7 337 22.6
2011-06-17 08:21:00 51°21.708 2°48.703 347.7 12.8 336 22.9
2011-06-17 08:21:05 51°21.724 2°48.692 347.6 12.8 336 22.7
2011-06-17 08:21:09 51°21.737 2°48.684 347 12.8 337 22.4
2011-06-17 08:21:15 51°21.756 2°48.67 347 12.7 337 22.4
2011-06-17 08:21:20 51°21.773 2°48.658 347.4 12.9 335 22.7
2011-06-17 08:21:25 51°21.789 2°48.646 346.3 12.9 334 22.8
2011-06-17 08:21:30 51°21.805 2°48.635 346.3 12.7 337 23
2011-06-17 08:21:35 51°21.821 2°48.623 346.8 12.8 335 22.7
2011-06-17 08:21:40 51°21.837 2°48.612 346.9 12.8 337 22.9
2011-06-17 08:21:45 51°21.853 2°48.6 347.1 12.7 336 22.6
2011-06-17 08:21:50 51°21.87 2°48.59 347.4 12.7 338 22.9
2011-06-17 08:21:55 51°21.886 2°48.579 348.4 12.7 338 23
2011-06-17 08:22:00 51°21.902 2°48.57 349.3 12.6 339 22.8
2011-06-17 08:22:05 51°21.919 2°48.56 349.5 12.6 339 22.8
2011-06-17 08:22:09 51°21.932 2°48.552 349.9 12.5 340 23
2011-06-17 08:22:15 51°21.951 2°48.541 350.5 12.4 340 22.7
2011-06-17 08:22:20 51°21.967 2°48.532 350.7 12.4 341 23.1
2011-06-17 08:22:25 51°21.984 2°48.523 350.7 12.5 341 23
2011-06-17 08:22:29 51°21.997 2°48.516 350.8 12.4 342 22.9
2011-06-17 08:22:35 51°22.017 2°48.506 350.9 12.4 342 22.8
2011-06-17 08:22:40 51°22.033 2°48.497 350.7 12.4 342 22.9
2011-06-17 08:22:45 51°22.049 2°48.489 351 12.4 342 23.2
2011-06-17 08:22:49 51°22.062 2°48.482 350.9 12.4 342 22.9
2011-06-17 08:22:55 51°22.082 2°48.471 350.1 12.4 341 22.8
2011-06-17 08:23:00 51°22.098 2°48.462 349.7 12.4 340 23
2011-06-17 08:23:05 51°22.114 2°48.452 349.2 12.3 340 23.1
2011-06-17 08:23:09 51°22.127 2°48.445 348.4 12.4 340 23.3
2011-06-17 08:23:15 51°22.147 2°48.433 348.5 12.5 339 23.1
2011-06-17 08:23:20 51°22.163 2°48.422 347.8 12.5 338 23.2
2011-06-17 08:23:25 51°22.179 2°48.412 347 12.5 338 22.7
2011-06-17 08:23:29 51°22.192 2°48.404 346.8 12.5 338 22.7
2011-06-17 08:23:35 51°22.211 2°48.391 346.7 12.5 338 23.2
2011-06-17 08:23:40 51°22.227 2°48.381 346.8 12.5 337 22.3
2011-06-17 08:23:45 51°22.243 2°48.37 346.8 12.6 337 22
2011-06-17 08:23:49 51°22.256 2°48.361 345.7 12.6 337 21.5
2011-06-17 08:23:55 51°22.275 2°48.348 346.3 12.6 338 21.1
2011-06-17 08:24:00 51°22.291 2°48.338 347.1 12.6 338 20.6
2011-06-17 08:24:05 51°22.307 2°48.328 346.8 12.5 339 20.9
2011-06-17 08:24:10 51°22.324 2°48.318 347.7 12.4 340 20.2
2011-06-17 08:24:15 51°22.34 2°48.309 348.2 12.4 340 19.2
2011-06-17 08:24:20 51°22.356 2°48.299 349.1 12.3 339 18.2
2011-06-17 08:24:25 51°22.372 2°48.29 348.5 12.2 340 16.9
2011-06-17 08:24:30 51°22.388 2°48.281 349.1 12.3 341 16.5
2011-06-17 08:24:35 51°22.404 2°48.272 349.1 12.2 340 17.7
2011-06-17 08:24:40 51°22.42 2°48.262 348.7 12.2 339 17.8
2011-06-17 08:24:45 51°22.436 2°48.252 348.5 12.3 339 17.5
2011-06-17 08:24:49 51°22.449 2°48.245 348 12.2 340 17.4
2011-06-17 08:24:55 51°22.468 2°48.233 348 12.2 339 16.9
2011-06-17 08:25:00 51°22.483 2°48.223 348.2 12.3 337 16.9
2011-06-17 08:25:05 51°22.499 2°48.212 347 12.4 336 16.3
2011-06-17 08:25:09 51°22.512 2°48.202 345.5 12.3 335 15.6
2011-06-17 08:25:15 51°22.53 2°48.189 345 12.2 335 14.8
2011-06-17 08:25:20 51°22.545 2°48.177 344.2 12.1 334 13.8
2011-06-17 08:25:25 51°22.56 2°48.165 344.4 12.1 334 13.5
2011-06-17 08:25:29 51°22.572 2°48.155 343.8 12.2 333 12
2011-06-17 08:25:35 51°22.59 2°48.14 343.7 12.3 333 13.9
2011-06-17 08:25:40 51°22.605 2°48.128 343.6 12.2 334 15
2011-06-17 08:25:45 51°22.621 2°48.116 345 12.2 335 16.1
2011-06-17 08:25:49 51°22.633 2°48.109 346.4 12 339 17
2011-06-17 08:25:55 51°22.652 2°48.097 347.7 12.1 338 17.4
2011-06-17 08:26:00 51°22.668 2°48.088 348.8 12.1 340 17.8
2011-06-17 08:26:05 51°22.684 2°48.079 349.4 12.1 340 17.8
2011-06-17 08:26:09 51°22.697 2°48.072 350.5 12.1 341 17.9
2011-06-17 08:26:15 51°22.716 2°48.061 350.4 12.1 339 17.5
2011-06-17 08:26:20 51°22.732 2°48.053 350.3 12.1 342 17.3
2011-06-17 08:26:25 51°22.747 2°48.043 350.6 12.2 339 16.2
2011-06-17 08:26:30 51°22.763 2°48.034 350.8 12.1 341 17.5
2011-06-17 08:26:35 51°22.779 2°48.024 350 12.1 338 17.8
2011-06-17 08:26:40 51°22.795 2°48.015 349.9 12 341 17.8
2011-06-17 08:26:45 51°22.81 2°48.005 350 12.2 338 17.5
2011-06-17 08:26:49 51°22.823 2°47.997 349.6 12.2 339 17.5
2011-06-17 08:26:55 51°22.842 2°47.985 349 12.2 338 18.5
2011-06-17 08:27:00 51°22.858 2°47.975 349 12.2 338 18.5
2011-06-17 08:27:05 51°22.873 2°47.964 348.7 12.2 337 18.5
2011-06-17 08:27:10 51°22.889 2°47.954 347.9 12.2 337 18.8
2011-06-17 08:27:15 51°22.905 2°47.943 348.1 12.2 338 18.8
2011-06-17 08:27:20 51°22.92 2°47.933 348.3 12.3 337 19.7
2011-06-17 08:27:25 51°22.936 2°47.923 348.3 12.2 339 19.3
2011-06-17 08:27:29 51°22.949 2°47.915 349.3 12.3 339 19.5
2011-06-17 08:27:35 51°22.968 2°47.903 349.4 12.2 340 19.5
2011-06-17 08:27:40 51°22.984 2°47.893 350.2 12.3 339 20.2
2011-06-17 08:27:45 51°23 2°47.883 349.8 12.3 339 20.3
2011-06-17 08:27:50 51°23.016 2°47.874 350.3 12.2 340 20
2011-06-17 08:27:55 51°23.031 2°47.864 349.9 12.3 338 20
2011-06-17 08:28:00 51°23.047 2°47.855 349.9 12.3 340 20.1
2011-06-17 08:28:05 51°23.064 2°47.844 350 12.4 339 20
2011-06-17 08:28:09 51°23.076 2°47.837 350.2 12.3 341 20
2011-06-17 08:28:15 51°23.096 2°47.825 350 12.3 338 19.7
2011-06-17 08:28:20 51°23.112 2°47.815 349.5 12.3 338 20
2011-06-17 08:28:25 51°23.127 2°47.804 348.9 12.3 337 20.1
2011-06-17 08:28:30 51°23.143 2°47.794 349.1 12.4 338 19.7
2011-06-17 08:28:35 51°23.159 2°47.783 348.8 12.5 337 19.6
2011-06-17 08:28:40 51°23.175 2°47.774 348.5 12.4 339 20.4
2011-06-17 08:28:45 51°23.191 2°47.763 348.8 12.4 337 20.2
2011-06-17 08:28:50 51°23.207 2°47.753 348.5 12.4 338 20.7
2011-06-17 08:28:55 51°23.223 2°47.742 348.5 12.4 338 20.2
2011-06-17 08:29:00 51°23.239 2°47.732 348.8 12.3 339 20.4
2011-06-17 08:29:05 51°23.255 2°47.722 349.2 12.4 338 20.8
2011-06-17 08:29:10 51°23.271 2°47.713 349.2 12.3 340 20.8
2011-06-17 08:29:15 51°23.287 2°47.703 349.1 12.4 339 20.5
2011-06-17 08:29:20 51°23.303 2°47.694 349.7 12.3 341 20.1
2011-06-17 08:29:25 51°23.319 2°47.683 350 12.4 338 20.3
2011-06-17 08:29:29 51°23.332 2°47.676 349.2 12.3 340 19.9
2011-06-17 08:29:35 51°23.351 2°47.663 349.6 12.4 337 20.2
2011-06-17 08:29:40 51°23.367 2°47.653 349.2 12.3 338 19.4
2011-06-17 08:29:45 51°23.382 2°47.642 348.3 12.4 336 19
2011-06-17 08:29:49 51°23.395 2°47.633 347.7 12.5 337 17.5
2011-06-17 08:29:55 51°23.414 2°47.618 347.1 12.6 334 17.8
2011-06-17 08:30:00 51°23.43 2°47.607 346.6 12.6 335 18.1
2011-06-17 08:30:05 51°23.446 2°47.595 346.2 12.5 336 19.5
2011-06-17 08:30:09 51°23.458 2°47.586 345.9 12.4 335 20
2011-06-17 08:30:15 51°23.477 2°47.573 346 12.5 335 20.9
2011-06-17 08:30:20 51°23.493 2°47.561 346.3 12.4 335 21.2
2011-06-17 08:30:25 51°23.509 2°47.55 346.3 12.4 337 21.5
2011-06-17 08:30:29 51°23.521 2°47.542 346.9 12.4 337 21.2
2011-06-17 08:30:35 51°23.54 2°47.529 347.5 12.4 337 21.3
2011-06-17 08:30:40 51°23.556 2°47.518 347.4 12.5 336 20.9
2011-06-17 08:30:45 51°23.572 2°47.509 347.7 12.3 339 21.7
2011-06-17 08:30:49 51°23.585 2°47.5 348.9 12.4 337 22.2
2011-06-17 08:30:55 51°23.604 2°47.488 348.4 12.4 339 22.1
2011-06-17 08:31:00 51°23.62 2°47.478 348.4 12.4 339 22.4
2011-06-17 08:31:05 51°23.636 2°47.468 348.7 12.4 338 23.1
2011-06-17 08:31:09 51°23.649 2°47.46 348.5 12.4 339 22.8
2011-06-17 08:31:15 51°23.668 2°47.447 348.6 12.4 338 23.1
2011-06-17 08:31:20 51°23.684 2°47.437 348.2 12.4 338 23
2011-06-17 08:31:25 51°23.7 2°47.426 348 12.4 338 23.1
2011-06-17 08:31:29 51°23.713 2°47.417 347.3 12.5 336 23.2
2011-06-17 08:31:35 51°23.732 2°47.405 347.3 12.4 338 23.1
2011-06-17 08:31:40 51°23.748 2°47.394 348 12.4 336 22.2
2011-06-17 08:31:45 51°23.764 2°47.384 347.8 12.4 338 21
2011-06-17 08:31:49 51°23.777 2°47.374 347.8 12.5 336 19
2011-06-17 08:31:55 51°23.796 2°47.361 348.2 12.6 335 18.5
2011-06-17 08:32:00 51°23.811 2°47.35 347 12.5 336 18.6
2011-06-17 08:32:05 51°23.827 2°47.338 347 12.5 336 19.1
2011-06-17 08:32:09 51°23.84 2°47.33 347.3 12.5 337 20.2
2011-06-17 08:32:15 51°23.859 2°47.316 347.2 12.5 337 21.6
2011-06-17 08:32:20 51°23.875 2°47.306 347.8 12.5 337 22.4
2011-06-17 08:32:25 51°23.891 2°47.295 347.7 12.5 337 23.3
2011-06-17 08:32:29 51°23.904 2°47.287 348 12.4 337 23.9
2011-06-17 08:32:35 51°23.923 2°47.274 348 12.4 337 24.4
2011-06-17 08:32:40 51°23.939 2°47.264 348 12.5 338 25
2011-06-17 08:32:45 51°23.955 2°47.253 347.9 12.4 337 25.2
2011-06-17 08:32:49 51°23.968 2°47.245 348.5 12.4 338 25.5
2011-06-17 08:32:55 51°23.987 2°47.232 348.2 12.4 338 25.5
2011-06-17 08:33:00 51°24.003 2°47.221 347.8 12.4 337 25.3
2011-06-17 08:33:05 51°24.019 2°47.211 347.6 12.4 337 25.6
2011-06-17 08:33:09 51°24.032 2°47.202 347.8 12.5 337 25.8
2011-06-17 08:33:15 51°24.051 2°47.189 347 12.4 337 26.2
2011-06-17 08:33:20 51°24.067 2°47.178 347.1 12.5 336 26.1
2011-06-17 08:33:25 51°24.082 2°47.166 346.7 12.6 335 26.2
2011-06-17 08:33:29 51°24.095 2°47.156 346.4 12.6 334 26.3
2011-06-17 08:33:35 51°24.114 2°47.142 346 12.5 335 26.4
2011-06-17 08:33:40 51°24.13 2°47.13 346 12.6 334 26.5
2011-06-17 08:33:45 51°24.145 2°47.118 345.4 12.6 334 26.1
2011-06-17 08:33:49 51°24.158 2°47.109 345.7 12.6 335 25.9
2011-06-17 08:33:55 51°24.177 2°47.093 344.6 12.5 334 25.7
2011-06-17 08:34:00 51°24.192 2°47.081 345.4 12.6 334 26.6
2011-06-17 08:34:05 51°24.208 2°47.069 345.4 12.5 334 26.9
2011-06-17 08:34:09 51°24.221 2°47.06 345.5 12.5 335 27.4
2011-06-17 08:34:15 51°24.239 2°47.045 345.6 12.5 334 26
2011-06-17 08:34:20 51°24.255 2°47.033 346.4 12.5 334 26.8
2011-06-17 08:34:25 51°24.271 2°47.022 346.8 12.5 337 27.6
2011-06-17 08:34:29 51°24.283 2°47.012 346.7 12.6 335 27.7
2011-06-17 08:34:35 51°24.303 2°46.999 347.4 12.4 337 28.2
2011-06-17 08:34:40 51°24.318 2°46.987 347 12.6 334 28.9
2011-06-17 08:34:45 51°24.334 2°46.975 346.9 12.5 335 29.1
2011-06-17 08:34:49 51°24.346 2°46.966 346.9 12.5 335 29.6
2011-06-17 08:34:55 51°24.365 2°46.952 347.2 12.5 336 29.9
2011-06-17 08:35:00 51°24.381 2°46.941 347.2 12.4 337 30
2011-06-17 08:35:05 51°24.397 2°46.93 347.5 12.5 336 29.1
2011-06-17 08:35:09 51°24.41 2°46.921 348.3 12.5 337 28.9
2011-06-17 08:35:15 51°24.429 2°46.907 347.8 12.5 335 30.1
2011-06-17 08:35:20 51°24.445 2°46.896 347.4 12.5 336 30.4
2011-06-17 08:35:25 51°24.461 2°46.884 347.5 12.6 335 30.5
2011-06-17 08:35:29 51°24.473 2°46.875 346.3 12.5 336 30.3
2011-06-17 08:35:35 51°24.492 2°46.861 346.7 12.5 335 30.3
2011-06-17 08:35:40 51°24.508 2°46.849 346.7 12.5 334 29.5
2011-06-17 08:35:45 51°24.523 2°46.836 345.6 12.5 334 29
2011-06-17 08:35:50 51°24.539 2°46.825 345.5 12.6 334 28.9
2011-06-17 08:35:55 51°24.555 2°46.812 345.8 12.5 334 29.6
2011-06-17 08:36:00 51°24.57 2°46.8 346 12.5 335 30.2
2011-06-17 08:36:05 51°24.586 2°46.788 346.2 12.6 333 30.1
2011-06-17 08:36:09 51°24.599 2°46.779 346 12.6 335 29.7
2011-06-17 08:36:15 51°24.618 2°46.764 345.9 12.6 335 29
2011-06-17 08:36:20 51°24.634 2°46.753 346.3 12.6 335 28.8
2011-06-17 08:36:25 51°24.65 2°46.741 346.6 12.6 335 28.4
2011-06-17 08:36:29 51°24.662 2°46.733 346.7 12.5 336 28.2
2011-06-17 08:36:35 51°24.681 2°46.719 347.7 12.5 336 28.3
2011-06-17 08:36:40 51°24.697 2°46.709 347.7 12.4 338 28.8
2011-06-17 08:36:45 51°24.713 2°46.698 348.1 12.4 337 29
2011-06-17 08:36:49 51°24.726 2°46.689 347.6 12.4 337 28.6
2011-06-17 08:36:55 51°24.745 2°46.676 347.3 12.5 336 26.7
2011-06-17 08:37:00 51°24.761 2°46.664 347 12.5 336 26.8
2011-06-17 08:37:05 51°24.776 2°46.652 346.2 12.5 334 26.7
2011-06-17 08:37:10 51°24.792 2°46.64 345.7 12.5 334 25.9
2011-06-17 08:37:15 51°24.807 2°46.628 345.1 12.5 334 25.3
2011-06-17 08:37:20 51°24.823 2°46.616 345.4 12.4 334 25.5
2011-06-17 08:37:25 51°24.838 2°46.604 345.9 12.5 334 25.2
2011-06-17 08:37:29 51°24.851 2°46.594 345.6 12.5 335 24.9
2011-06-17 08:37:35 51°24.869 2°46.579 345.7 12.5 334 23.9
2011-06-17 08:37:40 51°24.885 2°46.567 345.4 12.4 335 24.2
2011-06-17 08:37:45 51°24.9 2°46.555 345.4 12.4 334 23.9
2011-06-17 08:37:49 51°24.913 2°46.546 345.6 12.4 335 24.4
2011-06-17 08:37:55 51°24.932 2°46.532 345.2 12.4 335 24.4
2011-06-17 08:38:00 51°24.947 2°46.52 346 12.4 335 24.2
2011-06-17 08:38:05 51°24.963 2°46.508 346.3 12.5 336 24.4
2011-06-17 08:38:09 51°24.976 2°46.499 346.8 12.5 336 24.4
2011-06-17 08:38:15 51°24.995 2°46.485 346.9 12.5 336 24.3
2011-06-17 08:38:20 51°25.01 2°46.474 347 12.4 337 24.7
2011-06-17 08:38:25 51°25.026 2°46.463 347.2 12.6 336 24.2
2011-06-17 08:38:29 51°25.039 2°46.455 347.3 12.6 337 24
2011-06-17 08:38:35 51°25.058 2°46.441 346.8 12.5 335 24.4
2011-06-17 08:38:40 51°25.074 2°46.429 347 12.5 335 24.1
2011-06-17 08:38:45 51°25.09 2°46.417 346.4 12.5 334 24.2
2011-06-17 08:38:49 51°25.102 2°46.409 345.9 12.5 337 24.3
2011-06-17 08:38:55 51°25.121 2°46.394 345.7 12.6 334 24.4
2011-06-17 08:39:00 51°25.137 2°46.382 345.8 12.6 335 24.3
2011-06-17 08:39:05 51°25.153 2°46.369 345.3 12.7 332 24.4
2011-06-17 08:39:09 51°25.165 2°46.36 344.6 12.6 335 24.5
2011-06-17 08:39:15 51°25.184 2°46.345 345.1 12.6 335 24.7
2011-06-17 08:39:20 51°25.2 2°46.333 345.4 12.6 335 24.9
2011-06-17 08:39:25 51°25.216 2°46.321 346.3 12.7 335 24.6
2011-06-17 08:39:29 51°25.229 2°46.312 346.3 12.6 335 23.5
2011-06-17 08:39:35 51°25.248 2°46.298 346.4 12.5 335 24.3
2011-06-17 08:39:40 51°25.263 2°46.287 346.4 12.5 335 23.7
2011-06-17 08:39:45 51°25.279 2°46.276 347.3 12.5 337 24.5
2011-06-17 08:39:49 51°25.292 2°46.266 347.2 12.5 335 24.9
2011-06-17 08:39:55 51°25.311 2°46.253 347.3 12.5 337 25.1
2011-06-17 08:40:00 51°25.327 2°46.242 347 12.6 336 24.6
2011-06-17 08:40:05 51°25.343 2°46.232 347.6 12.5 338 23.8
2011-06-17 08:40:10 51°25.359 2°46.22 347.6 12.5 336 23.1
2011-06-17 08:40:15 51°25.375 2°46.209 347 12.5 336 23.2
2011-06-17 08:40:20 51°25.39 2°46.197 346.4 12.4 336 22.6
2011-06-17 08:40:25 51°25.406 2°46.185 346.3 12.5 335 24.3
2011-06-17 08:40:30 51°25.422 2°46.173 345.8 12.5 335 24.5
2011-06-17 08:40:35 51°25.437 2°46.162 345.6 12.5 335 24.8
2011-06-17 08:40:40 51°25.453 2°46.149 345.6 12.5 334 24.6
2011-06-17 08:40:45 51°25.469 2°46.137 345.3 12.5 334 24.7
2011-06-17 08:40:50 51°25.484 2°46.125 344.9 12.6 333 23.3
2011-06-17 08:40:55 51°25.499 2°46.112 344.1 12.6 332 21.8
2011-06-17 08:41:00 51°25.515 2°46.099 343.9 12.5 334 23.3
2011-06-17 08:41:05 51°25.53 2°46.086 344.1 12.6 333 24
2011-06-17 08:41:09 51°25.543 2°46.077 344.7 12.6 334 24.3
2011-06-17 08:41:15 51°25.562 2°46.062 345.2 12.5 335 24.4
2011-06-17 08:41:20 51°25.578 2°46.05 345.7 12.5 335 23.7
2011-06-17 08:41:25 51°25.593 2°46.039 346.6 12.5 336 22.4
2011-06-17 08:41:29 51°25.606 2°46.03 346.9 12.4 336 23.2
2011-06-17 08:41:35 51°25.625 2°46.016 346.9 12.4 335 24.1
2011-06-17 08:41:40 51°25.64 2°46.005 346.7 12.3 335 23.4
2011-06-17 08:41:45 51°25.656 2°45.995 346.6 12.3 337 22.5
2011-06-17 08:41:49 51°25.669 2°45.986 347.5 12.4 336 22.9
2011-06-17 08:41:55 51°25.688 2°45.973 347.7 12.3 337 24
2011-06-17 08:42:00 51°25.704 2°45.963 348.2 12.3 338 23.8
2011-06-17 08:42:05 51°25.72 2°45.952 348.8 12.5 337 24.4
2011-06-17 08:42:09 51°25.732 2°45.943 347.9 12.5 336 24
2011-06-17 08:42:15 51°25.751 2°45.931 347.1 12.3 338 24.2
2011-06-17 08:42:20 51°25.767 2°45.919 347 12.4 335 24.6
2011-06-17 08:42:25 51°25.782 2°45.908 346.8 12.3 337 25.1
2011-06-17 08:42:30 51°25.798 2°45.896 346.7 12.4 334 24.6
2011-06-17 08:42:35 51°25.814 2°45.885 346.3 12.3 336 23.7
2011-06-17 08:42:40 51°25.829 2°45.874 346.4 12.3 336 24.7
2011-06-17 08:42:45 51°25.845 2°45.863 347 12.4 336 25.3
2011-06-17 08:42:49 51°25.858 2°45.855 347.2 12.4 337 25
2011-06-17 08:42:55 51°25.877 2°45.842 347.6 12.4 337 25.4
2011-06-17 08:43:00 51°25.892 2°45.831 347.3 12.4 336 25.6
2011-06-17 08:43:05 51°25.908 2°45.82 346.7 12.3 336 25.5
2011-06-17 08:43:09 51°25.92 2°45.811 346.8 12.4 335 25.3
2011-06-17 08:43:15 51°25.939 2°45.797 346.3 12.3 335 24.8
2011-06-17 08:43:20 51°25.955 2°45.785 345.8 12.4 335 23.2
2011-06-17 08:43:25 51°25.97 2°45.773 345.7 12.5 334 23.6
2011-06-17 08:43:29 51°25.983 2°45.763 344.8 12.4 334 24.4
2011-06-17 08:43:35 51°26.001 2°45.749 345.1 12.3 334 24.8
2011-06-17 08:43:40 51°26.016 2°45.737 344.8 12.3 335 25.6
2011-06-17 08:43:45 51°26.032 2°45.726 344.8 12.3 335 25.9
2011-06-17 08:43:50 51°26.048 2°45.714 345.8 12.4 335 26
2011-06-17 08:43:55 51°26.064 2°45.704 345.3 12.3 336 26.5
2011-06-17 08:44:00 51°26.079 2°45.692 346 12.4 335 25.9
2011-06-17 08:44:05 51°26.095 2°45.681 346.2 12.4 335 25
2011-06-17 08:44:09 51°26.107 2°45.671 345.6 12.4 334 25.2
2011-06-17 08:44:15 51°26.126 2°45.656 344.8 12.4 334 25.3
2011-06-17 08:44:20 51°26.142 2°45.644 344.8 12.4 333 25.2
2011-06-17 08:44:25 51°26.157 2°45.632 344.4 12.4 334 25.8
2011-06-17 08:44:30 51°26.172 2°45.62 344.1 12.4 333 25.7
2011-06-17 08:44:35 51°26.188 2°45.608 344.3 12.4 334 26.2
2011-06-17 08:44:40 51°26.203 2°45.595 344.9 12.4 333 25.8
2011-06-17 08:44:45 51°26.219 2°45.584 344.6 12.4 335 25.9
2011-06-17 08:44:50 51°26.234 2°45.571 344.8 12.6 333 24.9
2011-06-17 08:44:55 51°26.25 2°45.559 344.8 12.5 335 26.2
2011-06-17 08:45:00 51°26.265 2°45.546 344.9 12.5 333 26.4
2011-06-17 08:45:05 51°26.281 2°45.534 345 12.5 334 27.3
2011-06-17 08:45:10 51°26.296 2°45.523 343.9 12.3 335 27.8
2011-06-17 08:45:15 51°26.312 2°45.51 345.9 12.6 332 27
2011-06-17 08:45:20 51°26.328 2°45.498 344.9 12.4 335 26.5
2011-06-17 08:45:25 51°26.343 2°45.485 344.8 12.5 333 26.4
2011-06-17 08:45:29 51°26.355 2°45.476 344.7 12.4 333 26.8
2011-06-17 08:45:35 51°26.374 2°45.462 345 12.4 334 27.2
2011-06-17 08:45:40 51°26.39 2°45.45 345.4 12.4 336 27.5
2011-06-17 08:45:45 51°26.406 2°45.439 347 12.4 337 27.4
2011-06-17 08:45:49 51°26.418 2°45.43 347.5 12.4 336 28
2011-06-17 08:45:55 51°26.437 2°45.418 347.8 12.4 337 27.8
2011-06-17 08:46:00 51°26.453 2°45.406 348 12.5 336 28.1
2011-06-17 08:46:05 51°26.469 2°45.396 348 12.4 338 27.9
2011-06-17 08:46:09 51°26.481 2°45.387 347.8 12.4 336 27.8
2011-06-17 08:46:15 51°26.501 2°45.375 348.1 12.3 339 27.9
2011-06-17 08:46:20 51°26.516 2°45.363 349.1 12.4 336 27.8
2011-06-17 08:46:25 51°26.532 2°45.353 348.5 12.4 337 27.9
2011-06-17 08:46:29 51°26.545 2°45.345 348.5 12.5 337 27.8
2011-06-17 08:46:35 51°26.564 2°45.331 348.7 12.4 337 27.8
2011-06-17 08:46:40 51°26.58 2°45.32 347.9 12.4 337 27.8
2011-06-17 08:46:45 51°26.595 2°45.308 347.7 12.4 335 27.8
2011-06-17 08:46:49 51°26.608 2°45.3 347.2 12.4 336 27.6
2011-06-17 08:46:55 51°26.627 2°45.286 346.3 12.4 335 27.9
2011-06-17 08:47:00 51°26.643 2°45.275 347 12.4 337 27.9
2011-06-17 08:47:05 51°26.658 2°45.263 346.7 12.5 335 27.8
2011-06-17 08:47:10 51°26.674 2°45.251 347.1 12.5 336 27.5
2011-06-17 08:47:15 51°26.69 2°45.239 346.1 12.4 334 27.4
2011-06-17 08:47:20 51°26.705 2°45.227 345.9 12.5 334 27.3
2011-06-17 08:47:25 51°26.721 2°45.214 345 12.6 333 27.5
2011-06-17 08:47:30 51°26.736 2°45.201 345.3 12.6 334 27.5
2011-06-17 08:47:35 51°26.752 2°45.189 345.2 12.6 333 27.5
2011-06-17 08:47:40 51°26.768 2°45.177 344.8 12.6 334 27.6
2011-06-17 08:47:45 51°26.783 2°45.165 345.5 12.6 334 27.5
2011-06-17 08:47:50 51°26.799 2°45.152 345.2 12.6 334 27.6
2011-06-17 08:47:55 51°26.815 2°45.142 346.3 12.4 337 27.1
2011-06-17 08:48:00 51°26.831 2°45.13 347 12.5 335 27.4
2011-06-17 08:48:05 51°26.847 2°45.119 347.3 12.5 337 27.9
2011-06-17 08:48:10 51°26.862 2°45.107 347.4 12.5 335 27.8
2011-06-17 08:48:15 51°26.878 2°45.097 347.4 12.4 337 28.1
2011-06-17 08:48:20 51°26.894 2°45.086 347.7 12.5 336 28.1
2011-06-17 08:48:25 51°26.91 2°45.075 347.4 12.4 336 28.3
2011-06-17 08:48:29 51°26.922 2°45.066 347.2 12.5 336 28.2
2011-06-17 08:48:35 51°26.941 2°45.053 347.4 12.4 337 27.8
2011-06-17 08:48:40 51°26.957 2°45.041 348.2 12.5 337 27.4
2011-06-17 08:48:45 51°26.973 2°45.031 347.5 12.4 337 27.9
2011-06-17 08:48:50 51°26.989 2°45.019 347.2 12.5 336 28.5
2011-06-17 08:48:55 51°27.005 2°45.008 347.3 12.6 336 28.4
2011-06-17 08:49:00 51°27.021 2°44.996 346.7 12.6 334 28.6
2011-06-17 08:49:05 51°27.037 2°44.984 345.6 12.6 335 28.8
2011-06-17 08:49:10 51°27.052 2°44.971 345.4 12.6 334 28.7
2011-06-17 08:49:15 51°27.068 2°44.959 345.1 12.6 334 28.8
2011-06-17 08:49:20 51°27.084 2°44.947 344.8 12.5 335 28.5
2011-06-17 08:49:25 51°27.099 2°44.935 344.9 12.5 335 28.7
2011-06-17 08:49:30 51°27.115 2°44.923 344.5 12.6 334 28.7
2011-06-17 08:49:35 51°27.131 2°44.91 344.9 12.6 334 28.2
2011-06-17 08:49:40 51°27.146 2°44.897 344.1 12.6 333 27.2
2011-06-17 08:49:45 51°27.162 2°44.885 344.1 12.6 334 26.2
2011-06-17 08:49:49 51°27.175 2°44.875 344.1 12.6 333 26.2
2011-06-17 08:49:55 51°27.193 2°44.859 343.8 12.7 332 25.1
2011-06-17 08:50:00 51°27.209 2°44.846 343.4 12.6 332 25.2
2011-06-17 08:50:05 51°27.224 2°44.833 343.8 12.7 332 25.2
2011-06-17 08:50:09 51°27.237 2°44.823 343.1 12.6 332 25.4
2011-06-17 08:50:15 51°27.255 2°44.807 343.3 12.6 333 25.4
2011-06-17 08:50:20 51°27.271 2°44.794 343.8 12.8 332 25.6
2011-06-17 08:50:25 51°27.286 2°44.781 343.5 12.6 332 26